createdAt,value
2018-05-06T00:00:10.102Z,15.40
2018-05-06T00:02:38.451Z,15.35
2018-05-06T00:05:06.797Z,15.45
2018-05-06T00:07:35.114Z,15.12
2018-05-06T00:10:03.445Z,15.29
2018-05-06T00:12:31.753Z,15.32
2018-05-06T00:15:00.093Z,15.32
2018-05-06T00:17:28.442Z,15.29
2018-05-06T00:19:56.787Z,15.23
2018-05-06T00:22:25.095Z,15.27
2018-05-06T00:24:53.445Z,15.24
2018-05-06T00:27:21.860Z,15.31
2018-05-06T00:29:50.188Z,15.24
2018-05-06T00:32:18.608Z,15.12
2018-05-06T00:34:46.990Z,15.31
2018-05-06T00:37:15.376Z,15.25
2018-05-06T00:39:43.733Z,15.20
2018-05-06T00:42:12.062Z,15.19
2018-05-06T00:44:40.806Z,15.18
2018-05-06T00:47:09.229Z,15.02
2018-05-06T00:49:37.569Z,15.06
2018-05-06T00:52:06.029Z,15.01
2018-05-06T00:54:44.264Z,14.89
2018-05-06T00:57:12.603Z,14.57
2018-05-06T00:59:41.012Z,14.84
2018-05-06T01:02:09.351Z,14.69
2018-05-06T01:04:37.766Z,14.67
2018-05-06T01:07:06.117Z,14.71
2018-05-06T01:09:34.568Z,14.65
2018-05-06T01:12:02.906Z,14.71
2018-05-06T01:14:31.224Z,14.63
2018-05-06T01:16:59.565Z,14.57
2018-05-06T01:19:27.889Z,14.61
2018-05-06T01:21:56.269Z,14.59
2018-05-06T01:24:24.589Z,14.37
2018-05-06T01:26:52.920Z,14.40
2018-05-06T01:29:21.251Z,14.52
2018-05-06T01:31:49.576Z,14.51
2018-05-06T01:34:17.916Z,14.50
2018-05-06T01:36:46.241Z,14.44
2018-05-06T01:39:14.669Z,14.43
2018-05-06T01:41:42.993Z,14.47
2018-05-06T01:44:11.404Z,14.33
2018-05-06T01:46:39.717Z,14.43
2018-05-06T01:49:08.057Z,14.30
2018-05-06T01:51:36.456Z,14.38
2018-05-06T01:54:04.833Z,14.44
2018-05-06T01:56:33.243Z,14.43
2018-05-06T01:59:01.588Z,14.40
2018-05-06T02:01:29.999Z,14.40
2018-05-06T02:03:58.319Z,14.37
2018-05-06T02:06:26.628Z,14.27
2018-05-06T02:08:54.983Z,14.21
2018-05-06T02:11:23.384Z,14.28
2018-05-06T02:13:51.689Z,14.09
2018-05-06T02:16:20.032Z,14.17
2018-05-06T02:18:48.408Z,14.28
2018-05-06T02:21:16.781Z,14.18
2018-05-06T02:23:45.160Z,14.15
2018-05-06T02:26:13.625Z,14.09
2018-05-06T02:28:41.928Z,14.03
2018-05-06T02:31:10.294Z,14.08
2018-05-06T02:33:38.636Z,14.12
2018-05-06T02:36:07.062Z,14.07
2018-05-06T02:38:35.375Z,14.02
2018-05-06T02:41:03.737Z,14.05
2018-05-06T02:43:32.050Z,14.01
2018-05-06T02:46:00.464Z,13.80
2018-05-06T02:48:28.806Z,13.83
2018-05-06T02:50:57.213Z,13.87
2018-05-06T02:53:25.665Z,13.93
2018-05-06T02:55:54.083Z,13.86
2018-05-06T02:58:22.456Z,13.76
2018-05-06T03:00:50.828Z,13.82
2018-05-06T03:03:19.214Z,13.89
2018-05-06T03:05:47.597Z,13.84
2018-05-06T03:08:15.968Z,13.80
2018-05-06T03:10:44.350Z,13.84
2018-05-06T03:13:12.728Z,13.79
2018-05-06T03:15:41.052Z,13.76
2018-05-06T03:18:09.400Z,13.80
2018-05-06T03:20:37.721Z,13.84
2018-05-06T03:23:06.180Z,13.82
2018-05-06T03:25:34.522Z,13.84
2018-05-06T03:28:02.897Z,13.76
2018-05-06T03:30:31.233Z,13.71
2018-05-06T03:32:59.561Z,13.71
2018-05-06T03:35:27.893Z,13.61
2018-05-06T03:37:56.202Z,13.52
2018-05-06T03:40:24.576Z,13.58
2018-05-06T03:42:52.908Z,13.46
2018-05-06T03:45:21.345Z,13.35
2018-05-06T03:47:49.727Z,13.45
2018-05-06T03:50:18.060Z,13.49
2018-05-06T03:52:46.476Z,13.39
2018-05-06T03:55:14.828Z,13.34
2018-05-06T03:57:55.126Z,13.39
2018-05-06T04:00:46.264Z,13.32
2018-05-06T04:03:14.608Z,13.25
2018-05-06T04:05:43.010Z,13.32
2018-05-06T04:08:11.332Z,13.33
2018-05-06T04:10:39.740Z,13.31
2018-05-06T04:13:08.055Z,13.37
2018-05-06T04:15:36.400Z,13.11
2018-05-06T04:18:04.733Z,13.27
2018-05-06T04:20:33.150Z,13.25
2018-05-06T04:23:01.465Z,13.26
2018-05-06T04:25:29.805Z,13.32
2018-05-06T04:27:58.125Z,13.33
2018-05-06T04:30:26.432Z,13.37
2018-05-06T04:32:54.773Z,13.28
2018-05-06T04:35:23.085Z,13.24
2018-05-06T04:37:51.437Z,13.32
2018-05-06T04:40:19.804Z,13.28
2018-05-06T04:42:48.237Z,13.34
2018-05-06T04:45:16.560Z,13.24
2018-05-06T04:47:44.905Z,13.33
2018-05-06T04:50:14.451Z,13.42
2018-05-06T04:52:42.876Z,13.42
2018-05-06T04:55:11.190Z,13.32
2018-05-06T04:57:39.540Z,13.38
2018-05-06T05:00:07.856Z,13.36
2018-05-06T05:02:36.202Z,13.46
2018-05-06T05:05:04.522Z,13.42
2018-05-06T05:07:32.886Z,13.28
2018-05-06T05:10:01.194Z,13.31
2018-05-06T05:12:29.598Z,13.31
2018-05-06T05:14:57.981Z,13.21
2018-05-06T05:17:26.366Z,13.47
2018-05-06T05:19:54.742Z,13.45
2018-05-06T05:22:23.078Z,13.40
2018-05-06T05:24:51.447Z,13.41
2018-05-06T05:27:19.769Z,13.51
2018-05-06T05:29:48.188Z,13.51
2018-05-06T05:32:16.501Z,13.53
2018-05-06T05:34:44.907Z,13.32
2018-05-06T05:37:13.280Z,13.50
2018-05-06T05:39:41.616Z,13.43
2018-05-06T05:42:09.956Z,13.38
2018-05-06T05:44:38.272Z,13.50
2018-05-06T05:47:06.592Z,13.60
2018-05-06T05:49:34.935Z,13.71
2018-05-06T05:52:03.253Z,13.55
2018-05-06T05:54:31.742Z,13.72
2018-05-06T05:57:00.066Z,13.79
2018-05-06T05:59:28.403Z,13.93
2018-05-06T06:01:56.717Z,13.82
2018-05-06T06:04:25.017Z,13.86
2018-05-06T06:06:53.422Z,13.91
2018-05-06T06:09:21.753Z,14.18
2018-05-06T06:11:50.081Z,14.12
2018-05-06T06:14:18.520Z,14.18
2018-05-06T06:16:46.863Z,14.30
2018-05-06T06:19:15.565Z,14.48
2018-05-06T06:21:43.982Z,14.34
2018-05-06T06:24:12.307Z,14.55
2018-05-06T06:26:40.652Z,14.65
2018-05-06T06:29:08.974Z,14.64
2018-05-06T06:31:37.399Z,14.73
2018-05-06T06:34:05.780Z,14.75
2018-05-06T06:36:34.275Z,14.90
2018-05-06T06:39:02.654Z,14.80
2018-05-06T06:41:30.998Z,14.90
2018-05-06T06:43:59.397Z,15.01
2018-05-06T06:46:27.765Z,15.03
2018-05-06T06:48:56.430Z,15.14
2018-05-06T06:51:24.833Z,15.23
2018-05-06T06:53:53.228Z,15.23
2018-05-06T06:56:21.569Z,15.22
2018-05-06T06:58:49.974Z,15.33
2018-05-06T07:01:18.306Z,15.51
2018-05-06T07:03:46.635Z,15.64
2018-05-06T07:06:15.013Z,15.57
2018-05-06T07:08:43.332Z,15.77
2018-05-06T07:11:11.649Z,15.94
2018-05-06T07:13:40.768Z,15.99
2018-05-06T07:16:09.162Z,16.06
2018-05-06T07:18:37.474Z,15.93
2018-05-06T07:21:05.781Z,15.75
2018-05-06T07:23:34.163Z,15.88
2018-05-06T07:26:02.481Z,16.00
2018-05-06T07:28:30.849Z,16.01
2018-05-06T07:30:59.169Z,16.13
2018-05-06T07:33:27.500Z,16.10
2018-05-06T07:35:55.872Z,16.17
2018-05-06T07:38:24.274Z,16.01
2018-05-06T07:40:52.633Z,16.24
2018-05-06T07:43:20.944Z,16.39
2018-05-06T07:45:49.386Z,16.26
2018-05-06T07:48:17.742Z,16.13
2018-05-06T07:50:46.126Z,16.39
2018-05-06T07:53:14.441Z,16.35
2018-05-06T07:55:42.773Z,16.56
2018-05-06T07:58:11.097Z,16.45
2018-05-06T08:00:39.430Z,16.47
2018-05-06T08:03:07.811Z,16.61
2018-05-06T08:05:36.151Z,16.76
2018-05-06T08:08:04.540Z,16.74
2018-05-06T08:10:32.874Z,16.77
2018-05-06T08:13:01.185Z,16.95
2018-05-06T08:15:29.522Z,16.98
2018-05-06T08:17:57.883Z,17.05
2018-05-06T08:20:26.245Z,16.88
2018-05-06T08:22:54.625Z,16.90
2018-05-06T08:25:23.009Z,16.92
2018-05-06T08:27:51.312Z,17.09
2018-05-06T08:30:19.652Z,17.06
2018-05-06T08:32:48.013Z,17.13
2018-05-06T08:35:16.415Z,17.20
2018-05-06T08:37:44.806Z,17.16
2018-05-06T08:40:13.122Z,17.21
2018-05-06T08:42:41.466Z,17.15
2018-05-06T08:45:09.842Z,17.22
2018-05-06T08:47:38.228Z,17.16
2018-05-06T08:50:06.527Z,17.56
2018-05-06T08:52:34.953Z,17.68
2018-05-06T08:55:03.261Z,17.47
2018-05-06T08:57:31.581Z,17.43
2018-05-06T08:59:59.914Z,17.45
2018-05-06T09:02:28.284Z,17.73
2018-05-06T09:04:56.597Z,17.77
2018-05-06T09:07:24.926Z,17.85
2018-05-06T09:09:53.327Z,18.03
2018-05-06T09:12:21.635Z,18.39
2018-05-06T09:14:50.065Z,18.32
2018-05-06T09:17:18.390Z,18.14
2018-05-06T09:19:46.791Z,18.28
2018-05-06T09:22:15.066Z,18.12
2018-05-06T09:24:43.394Z,18.21
2018-05-06T09:27:11.854Z,18.41
2018-05-06T09:29:40.184Z,18.51
2018-05-06T09:32:08.525Z,18.60
2018-05-06T09:34:36.862Z,18.60
2018-05-06T09:37:05.173Z,18.72
2018-05-06T09:39:33.501Z,18.94
2018-05-06T09:42:01.807Z,18.80
2018-05-06T09:44:30.137Z,18.68
2018-05-06T09:46:58.449Z,18.85
2018-05-06T09:49:26.894Z,19.07
2018-05-06T09:51:55.192Z,18.87
2018-05-06T09:54:23.556Z,18.97
2018-05-06T09:56:51.980Z,19.16
2018-05-06T09:59:20.345Z,19.19
2018-05-06T10:01:48.749Z,19.07
2018-05-06T10:04:17.124Z,19.74
2018-05-06T10:06:45.467Z,19.91
2018-05-06T10:09:13.773Z,19.51
2018-05-06T10:11:42.145Z,19.70
2018-05-06T10:14:10.472Z,19.82
2018-05-06T10:16:38.837Z,19.85
2018-05-06T10:19:07.158Z,19.75
2018-05-06T10:21:35.495Z,19.94
2018-05-06T10:24:03.801Z,19.72
2018-05-06T10:26:32.129Z,20.01
2018-05-06T10:29:00.492Z,20.39
2018-05-06T10:31:28.832Z,20.34
2018-05-06T10:33:57.143Z,20.44
2018-05-06T10:36:25.518Z,20.32
2018-05-06T10:38:53.930Z,20.25
2018-05-06T10:41:22.263Z,20.26
2018-05-06T10:43:50.581Z,20.30
2018-05-06T10:46:18.934Z,20.36
2018-05-06T10:48:47.253Z,20.15
2018-05-06T10:51:15.591Z,20.39
2018-05-06T10:53:43.922Z,20.43
2018-05-06T10:56:12.249Z,20.81
2018-05-06T10:58:40.567Z,20.85
2018-05-06T11:01:09.000Z,20.84
2018-05-06T11:03:37.316Z,20.61
2018-05-06T11:06:05.616Z,20.94
2018-05-06T11:08:34.320Z,21.02
2018-05-06T11:11:02.637Z,21.19
2018-05-06T11:13:31.045Z,21.44
2018-05-06T11:15:59.376Z,21.24
2018-05-06T11:18:27.752Z,21.39
2018-05-06T11:20:56.068Z,21.39
2018-05-06T11:23:24.550Z,21.60
2018-05-06T11:25:52.858Z,21.67
2018-05-06T11:28:21.273Z,21.67
2018-05-06T11:30:49.573Z,21.87
2018-05-06T11:33:18.053Z,22.19
2018-05-06T11:35:46.398Z,22.43
2018-05-06T11:38:14.829Z,22.42
2018-05-06T11:40:43.198Z,22.42
2018-05-06T11:43:11.574Z,23.02
2018-05-06T11:45:39.870Z,23.08
2018-05-06T11:48:08.283Z,23.11
2018-05-06T11:50:36.539Z,23.12
2018-05-06T11:53:04.984Z,23.46
2018-05-06T11:55:33.319Z,23.74
2018-05-06T11:58:01.626Z,24.36
2018-05-06T12:00:29.981Z,25.22
2018-05-06T12:02:58.362Z,25.32
2018-05-06T12:05:26.698Z,25.15
2018-05-06T12:07:55.007Z,25.18
2018-05-06T12:10:23.332Z,25.75
2018-05-06T12:12:51.673Z,26.09
2018-05-06T12:15:20.009Z,26.13
2018-05-06T12:17:48.828Z,26.48
2018-05-06T12:20:17.157Z,27.12
2018-05-06T12:22:45.482Z,27.60
2018-05-06T12:25:13.906Z,27.84
2018-05-06T12:27:42.196Z,27.19
2018-05-06T12:30:10.532Z,27.06
2018-05-06T12:32:38.895Z,27.63
2018-05-06T12:35:07.266Z,28.05
2018-05-06T12:37:35.594Z,27.60
2018-05-06T12:40:03.934Z,28.10
2018-05-06T12:42:32.241Z,28.23
2018-05-06T12:45:00.550Z,28.10
2018-05-06T12:47:28.879Z,28.03
2018-05-06T12:49:57.229Z,27.95
2018-05-06T12:52:25.691Z,27.69
2018-05-06T12:54:53.993Z,27.70
2018-05-06T12:57:22.416Z,28.45
2018-05-06T12:59:50.859Z,29.12
2018-05-06T13:02:19.287Z,27.83
2018-05-06T13:04:47.590Z,27.68
2018-05-06T13:07:15.912Z,28.53
2018-05-06T13:09:44.224Z,28.86
2018-05-06T13:12:12.584Z,28.69
2018-05-06T13:14:40.877Z,27.96
2018-05-06T13:17:09.213Z,28.61
2018-05-06T13:19:37.522Z,29.21
2018-05-06T13:22:05.858Z,28.77
2018-05-06T13:24:34.174Z,28.80
2018-05-06T13:27:02.511Z,28.97
2018-05-06T13:29:30.825Z,28.76
2018-05-06T13:31:59.177Z,29.80
2018-05-06T13:34:27.488Z,29.28
2018-05-06T13:36:55.800Z,29.34
2018-05-06T13:39:24.200Z,29.22
2018-05-06T13:41:52.511Z,29.97
2018-05-06T13:44:20.945Z,29.84
2018-05-06T13:46:49.278Z,30.25
2018-05-06T13:49:17.733Z,29.69
2018-05-06T13:51:46.032Z,29.30
2018-05-06T13:54:14.361Z,29.68
2018-05-06T13:56:42.748Z,30.23
2018-05-06T13:59:11.084Z,31.45
2018-05-06T14:01:39.404Z,31.39
2018-05-06T14:04:07.733Z,31.32
2018-05-06T14:06:36.146Z,30.60
2018-05-06T14:09:04.489Z,30.02
2018-05-06T14:11:32.811Z,30.09
2018-05-06T14:14:01.142Z,29.09
2018-05-06T14:16:29.457Z,29.89
2018-05-06T14:18:57.797Z,30.22
2018-05-06T14:21:26.112Z,29.49
2018-05-06T14:23:54.530Z,29.52
2018-05-06T14:26:22.856Z,30.70
2018-05-06T14:28:51.244Z,30.48
2018-05-06T14:31:19.626Z,30.01
2018-05-06T14:33:47.944Z,30.64
2018-05-06T14:36:16.277Z,31.23
2018-05-06T14:38:44.596Z,32.22
2018-05-06T14:41:12.930Z,32.12
2018-05-06T14:43:41.307Z,30.46
2018-05-06T14:49:04.676Z,31.39
2018-05-06T14:51:32.985Z,31.58
2018-05-06T14:54:01.338Z,32.10
2018-05-06T14:56:29.660Z,32.09
2018-05-06T14:58:57.969Z,31.66
2018-05-06T15:01:26.315Z,31.38
2018-05-06T15:03:54.628Z,32.06
2018-05-06T15:06:22.976Z,32.58
2018-05-06T15:08:51.297Z,32.09
2018-05-06T15:11:19.715Z,31.59
2018-05-06T15:13:48.022Z,30.92
2018-05-06T15:16:16.458Z,31.99
2018-05-06T15:18:44.812Z,32.93
2018-05-06T15:21:13.184Z,32.19
2018-05-06T15:23:41.449Z,31.22
2018-05-06T15:26:09.785Z,32.78
2018-05-06T15:28:38.101Z,33.33
2018-05-06T15:31:06.509Z,33.14
2018-05-06T15:33:34.841Z,32.36
2018-05-06T15:36:03.178Z,33.55
2018-05-06T15:38:31.492Z,33.03
2018-05-06T15:40:59.800Z,32.80
2018-05-06T15:43:28.152Z,32.78
2018-05-06T15:45:56.440Z,32.34
2018-05-06T15:48:24.782Z,32.31
2018-05-06T15:50:53.100Z,32.33
2018-05-06T15:53:21.508Z,32.55
2018-05-06T15:55:49.997Z,32.53
2018-05-06T15:58:18.348Z,32.68
2018-05-06T16:00:46.743Z,33.24
2018-05-06T16:03:26.891Z,32.56
2018-05-06T16:05:55.317Z,32.74
2018-05-06T16:08:23.641Z,32.20
2018-05-06T16:10:51.965Z,31.93
2018-05-06T16:13:20.295Z,32.34
2018-05-06T16:15:48.634Z,32.86
2018-05-06T16:18:17.061Z,32.21
2018-05-06T16:20:45.376Z,33.15
2018-05-06T16:23:13.696Z,32.18
2018-05-06T16:25:42.004Z,32.69
2018-05-06T16:28:10.369Z,33.10
2018-05-06T16:30:38.688Z,32.50
2018-05-06T16:33:07.172Z,32.37
2018-05-06T16:35:35.477Z,32.10
2018-05-06T16:38:03.897Z,31.67
2018-05-06T16:40:32.281Z,31.52
2018-05-06T16:43:00.593Z,31.35
2018-05-06T16:45:28.957Z,32.38
2018-05-06T16:47:57.301Z,32.02
2018-05-06T16:50:25.808Z,31.47
2018-05-06T16:52:54.094Z,31.61
2018-05-06T21:59:57.111Z,16.52
2018-05-06T22:02:25.445Z,16.43
2018-05-06T22:04:53.785Z,16.33
2018-05-06T22:07:22.143Z,16.33
2018-05-06T22:09:50.577Z,16.50
2018-05-06T22:12:18.953Z,16.32
2018-05-06T22:14:47.282Z,16.38
2018-05-06T22:17:15.608Z,16.22
2018-05-06T22:19:43.964Z,16.25
2018-05-06T22:22:12.272Z,16.05
2018-05-06T22:24:40.618Z,15.93
2018-05-06T22:27:09.004Z,16.10
2018-05-06T22:29:37.450Z,15.97
2018-05-06T22:32:05.789Z,15.87
2018-05-06T22:34:34.077Z,15.91
2018-05-06T22:37:02.415Z,16.00
2018-05-06T22:39:30.729Z,15.89
2018-05-06T22:41:59.094Z,15.70
2018-05-06T22:44:27.397Z,15.78
2018-05-06T22:46:55.814Z,15.46
2018-05-06T22:49:24.108Z,15.69
2018-05-06T22:51:52.436Z,15.76
2018-05-06T22:54:20.852Z,15.62
2018-05-06T22:56:49.181Z,15.59
2018-05-06T22:59:17.502Z,15.67
2018-05-06T23:01:45.821Z,15.57
2018-05-06T23:04:14.190Z,15.53
2018-05-06T23:06:42.629Z,15.54
2018-05-06T23:09:11.109Z,15.38
2018-05-06T23:11:39.417Z,15.38
2018-05-06T23:14:07.780Z,15.36
2018-05-06T23:16:36.091Z,15.10
2018-05-06T23:19:04.447Z,14.87
2018-05-06T23:21:32.793Z,15.20
2018-05-06T23:24:01.133Z,15.28
2018-05-06T23:26:29.538Z,15.20
2018-05-06T23:28:57.809Z,15.27
2018-05-06T23:31:26.134Z,14.99
2018-05-06T23:33:54.529Z,14.94
2018-05-06T23:36:22.825Z,15.05
2018-05-06T23:38:51.160Z,14.91
2018-05-06T23:41:19.520Z,15.00
2018-05-06T23:43:47.967Z,14.74
2018-05-06T23:46:16.224Z,14.96
2018-05-06T23:48:45.568Z,14.93
2018-05-06T23:51:13.878Z,14.78
2018-05-06T23:53:42.193Z,14.95
2018-05-06T23:56:10.534Z,14.89
2018-05-06T23:58:38.829Z,14.67
